Orbital elements of EXPRESS 80
| Launched | 29 July 2020 |
| Flight ended | – |
| Launch site | Tyuratam Missile and Space Center, Kazakhstan (Also known as Baikonur Cosmodrome) |
| Owner | Commonwealth of Independent States (former USSR) |
| NORAD ID | 45986 |
| Date fetched |
Epoch osculation |
Inc. [°] |
Ecc. | RA asc node [hr] |
Arg Peri. [°] |
Mean anom [°] |
Mean motion [rev/day] |
Abs. mag |
| Date fetched |
Epoch osculation |
Inc. [°] |
Ecc. | RA asc node [hr] |
Arg Peri. [°] |
Mean anom [°] |
Mean motion [rev/day] |
Abs. mag |
| 2026 May 01 17:56 | 2026 Apr 30 04:07:30 | 0.0199 | 0.00017 | 18.4685 | 278.2721 | 164.6957 | 1.00272 | – |
| 2026 Apr 30 17:56 | 2026 Apr 30 04:07:30 | 0.0199 | 0.00017 | 18.4685 | 278.2721 | 164.6957 | 1.00272 | – |
| 2026 Apr 29 17:57 | 2026 Apr 29 04:11:25 | 0.0219 | 0.00017 | 18.3084 | 281.2725 | 164.6957 | 1.00272 | – |
| 2026 Apr 28 17:56 | 2026 Apr 28 04:15:21 | 0.0237 | 0.00017 | 18.1737 | 285.5094 | 164.6957 | 1.00272 | – |
| 2026 Apr 27 17:58 | 2026 Apr 25 04:27:09 | 0.0270 | 0.00031 | 16.6247 | 289.3898 | 164.6957 | 1.00272 | – |
| 2026 Apr 26 17:58 | 2026 Apr 24 04:33:17 | 0.0234 | 0.00103 | 18.4103 | 169.7940 | 164.6957 | 1.00272 | – |
| 2026 Apr 25 17:58 | 2026 Apr 24 04:33:17 | 0.0234 | 0.00103 | 18.4103 | 169.7940 | 164.6957 | 1.00272 | – |
| 2026 Apr 24 17:59 | 2026 Apr 24 04:31:09 | 0.0209 | 0.00021 | 17.8961 | 239.8475 | 164.6957 | 1.00272 | – |
| 2026 Apr 23 17:57 | 2026 Apr 22 04:38:59 | 0.0217 | 0.00022 | 17.8187 | 249.7895 | 164.6957 | 1.00272 | – |
| 2026 Apr 22 17:57 | 2026 Apr 21 04:43:01 | 0.0274 | 0.00021 | 16.6846 | 266.9194 | 164.6957 | 1.00272 | – |
| 2026 Apr 21 17:57 | 2026 Apr 21 04:42:56 | 0.0236 | 0.00020 | 17.7299 | 252.3168 | 164.6957 | 1.00272 | – |
| 2026 Apr 20 17:57 | 2026 Apr 20 04:46:53 | 0.0252 | 0.00020 | 17.7329 | 252.6164 | 164.6957 | 1.00272 | – |
| 2026 Apr 19 17:58 | 2026 Apr 19 04:50:49 | 0.0240 | 0.00023 | 17.6727 | 257.8424 | 164.6957 | 1.00272 | – |
| 2026 Apr 18 17:56 | 2026 Apr 17 04:58:43 | 0.0281 | 0.00023 | 17.6163 | 260.5681 | 164.6957 | 1.00272 | – |
| 2026 Apr 16 17:57 | 2026 Apr 15 05:06:34 | 0.0255 | 0.00026 | 17.3187 | 269.1642 | 164.6957 | 1.00272 | – |
| 2026 Apr 14 17:57 | 2026 Apr 14 05:10:30 | 0.0269 | 0.00026 | 17.3815 | 269.3700 | 164.6957 | 1.00272 | – |
| 2026 Apr 13 17:57 | 2026 Apr 12 05:18:53 | 0.0148 | 0.00046 | 16.8611 | 206.7488 | 164.6957 | 1.00272 | – |
| 2026 Apr 12 17:57 | 2026 Apr 11 05:22:14 | 0.0107 | 0.00027 | 16.6326 | 273.2532 | 164.6957 | 1.00272 | – |
| 2026 Apr 11 17:57 | 2026 Apr 10 05:26:38 | 0.0269 | 0.00031 | 15.7981 | 272.7844 | 164.6957 | 1.00272 | – |
| 2026 Apr 10 17:58 | 2026 Apr 08 05:34:02 | 0.0230 | 0.00027 | 16.7828 | 281.0498 | 164.6957 | 1.00272 | – |
| 2026 Apr 09 18:01 | 2026 Apr 08 05:34:02 | 0.0230 | 0.00027 | 16.7828 | 281.0498 | 164.6957 | 1.00272 | – |
| 2026 Apr 08 17:57 | 2026 Apr 04 06:01:59 | 0.1257 | 0.01263 | 17.7304 | 142.0367 | 164.6957 | 1.00272 | – |
| 2026 Apr 07 17:57 | 2026 Apr 04 06:01:59 | 0.1257 | 0.01263 | 17.7304 | 142.0367 | 164.6957 | 1.00272 | – |
| 2026 Apr 06 17:57 | 2026 Apr 04 06:01:59 | 0.1257 | 0.01263 | 17.7304 | 142.0367 | 164.6957 | 1.00272 | – |
| 2026 Apr 05 17:56 | 2026 Apr 04 06:01:59 | 0.1257 | 0.01263 | 17.7304 | 142.0367 | 164.6957 | 1.00272 | – |
| 2026 Apr 04 17:57 | 2026 Apr 02 05:57:35 | 0.0333 | 0.00023 | 17.2838 | 272.2472 | 164.6957 | 1.00272 | – |